sensor_id;sensor_type;location;lat;lon;timestamp;pressure;altitude;pressure_sealevel;temperature;humidity
77889;BME280;67082;41.704;44.768;2024-03-06T00:00:06;95544.59;;;10.67;49.58
77889;BME280;67082;41.704;44.768;2024-03-06T00:02:36;95542.66;;;10.55;49.80
77889;BME280;67082;41.704;44.768;2024-03-06T00:05:05;95538.22;;;10.57;49.53
77889;BME280;67082;41.704;44.768;2024-03-06T00:07:37;95539.88;;;10.46;49.52
77889;BME280;67082;41.704;44.768;2024-03-06T00:10:05;95548.59;;;10.36;49.91
77889;BME280;67082;41.704;44.768;2024-03-06T00:12:34;95535.50;;;10.36;49.86
77889;BME280;67082;41.704;44.768;2024-03-06T00:15:02;95537.03;;;10.07;50.93
77889;BME280;67082;41.704;44.768;2024-03-06T00:17:30;95538.38;;;10.24;50.73
77889;BME280;67082;41.704;44.768;2024-03-06T00:19:58;95534.03;;;10.23;50.92
77889;BME280;67082;41.704;44.768;2024-03-06T00:22:27;95539.84;;;10.16;51.07
77889;BME280;67082;41.704;44.768;2024-03-06T00:24:55;95539.19;;;10.33;50.70
77889;BME280;67082;41.704;44.768;2024-03-06T00:27:23;95531.38;;;10.41;50.57
77889;BME280;67082;41.704;44.768;2024-03-06T00:29:51;95533.16;;;10.26;50.50
77889;BME280;67082;41.704;44.768;2024-03-06T00:32:20;95528.50;;;10.23;50.51
77889;BME280;67082;41.704;44.768;2024-03-06T00:34:51;95533.28;;;10.22;50.35
77889;BME280;67082;41.704;44.768;2024-03-06T00:37:19;95528.47;;;10.14;50.87
77889;BME280;67082;41.704;44.768;2024-03-06T00:39:47;95527.88;;;10.19;50.70
77889;BME280;67082;41.704;44.768;2024-03-06T00:42:15;95531.13;;;10.26;50.77
77889;BME280;67082;41.704;44.768;2024-03-06T00:44:44;95511.66;;;10.08;50.71
77889;BME280;67082;41.704;44.768;2024-03-06T00:47:12;95523.06;;;10.10;50.70
77889;BME280;67082;41.704;44.768;2024-03-06T00:49:41;95531.59;;;10.03;50.79
77889;BME280;67082;41.704;44.768;2024-03-06T00:52:10;95521.34;;;9.91;51.52
77889;BME280;67082;41.704;44.768;2024-03-06T00:54:38;95528.75;;;10.07;51.36
77889;BME280;67082;41.704;44.768;2024-03-06T00:57:06;95521.56;;;9.97;51.01
77889;BME280;67082;41.704;44.768;2024-03-06T00:59:34;95529.06;;;10.09;51.05
77889;BME280;67082;41.704;44.768;2024-03-06T01:02:03;95529.19;;;10.05;51.11
77889;BME280;67082;41.704;44.768;2024-03-06T01:04:31;95525.81;;;9.89;51.79
77889;BME280;67082;41.704;44.768;2024-03-06T01:06:59;95516.69;;;10.01;51.10
77889;BME280;67082;41.704;44.768;2024-03-06T01:09:28;95520.88;;;10.05;51.38
77889;BME280;67082;41.704;44.768;2024-03-06T01:11:57;95515.38;;;10.14;51.09
77889;BME280;67082;41.704;44.768;2024-03-06T01:14:25;95517.06;;;9.90;50.87
77889;BME280;67082;41.704;44.768;2024-03-06T01:16:53;95521.09;;;9.77;51.45
77889;BME280;67082;41.704;44.768;2024-03-06T01:19:21;95520.41;;;9.64;51.45
77889;BME280;67082;41.704;44.768;2024-03-06T01:21:50;95524.25;;;9.88;51.38
77889;BME280;67082;41.704;44.768;2024-03-06T01:24:18;95517.72;;;9.73;51.59
77889;BME280;67082;41.704;44.768;2024-03-06T01:26:46;95515.50;;;9.89;50.99
77889;BME280;67082;41.704;44.768;2024-03-06T01:29:14;95524.34;;;9.75;51.69
77889;BME280;67082;41.704;44.768;2024-03-06T01:31:42;95518.59;;;9.91;51.60
77889;BME280;67082;41.704;44.768;2024-03-06T01:34:14;95514.66;;;10.01;51.43
77889;BME280;67082;41.704;44.768;2024-03-06T01:36:43;95518.66;;;10.00;51.80
77889;BME280;67082;41.704;44.768;2024-03-06T01:39:11;95526.59;;;10.11;51.36
77889;BME280;67082;41.704;44.768;2024-03-06T01:41:51;95521.44;;;10.00;51.27
77889;BME280;67082;41.704;44.768;2024-03-06T01:44:19;95525.56;;;9.96;50.97
77889;BME280;67082;41.704;44.768;2024-03-06T01:46:47;95515.13;;;10.00;50.92
77889;BME280;67082;41.704;44.768;2024-03-06T01:49:17;95511.06;;;9.92;51.24
77889;BME280;67082;41.704;44.768;2024-03-06T01:51:59;95512.34;;;10.00;50.90
77889;BME280;67082;41.704;44.768;2024-03-06T01:54:29;95510.91;;;10.08;51.21
77889;BME280;67082;41.704;44.768;2024-03-06T01:56:59;95528.59;;;10.10;50.95
77889;BME280;67082;41.704;44.768;2024-03-06T01:59:31;95517.50;;;9.89;51.19
77889;BME280;67082;41.704;44.768;2024-03-06T02:02:05;95525.22;;;9.94;51.91
77889;BME280;67082;41.704;44.768;2024-03-06T02:04:33;95521.13;;;9.98;51.64
77889;BME280;67082;41.704;44.768;2024-03-06T02:07:02;95514.13;;;10.06;51.23
77889;BME280;67082;41.704;44.768;2024-03-06T02:09:30;95502.50;;;9.99;51.17
77889;BME280;67082;41.704;44.768;2024-03-06T02:11:59;95521.88;;;9.99;51.28
77889;BME280;67082;41.704;44.768;2024-03-06T02:14:28;95512.31;;;9.91;51.97
77889;BME280;67082;41.704;44.768;2024-03-06T02:16:57;95516.03;;;9.75;51.98
77889;BME280;67082;41.704;44.768;2024-03-06T02:19:45;95516.81;;;9.76;51.64
77889;BME280;67082;41.704;44.768;2024-03-06T02:22:16;95513.38;;;9.72;52.38
77889;BME280;67082;41.704;44.768;2024-03-06T02:24:48;95513.72;;;9.74;51.88
77889;BME280;67082;41.704;44.768;2024-03-06T02:27:17;95525.66;;;9.71;51.78
77889;BME280;67082;41.704;44.768;2024-03-06T02:29:45;95526.31;;;9.75;52.38
77889;BME280;67082;41.704;44.768;2024-03-06T02:32:14;95514.59;;;9.71;52.17
77889;BME280;67082;41.704;44.768;2024-03-06T02:34:42;95523.59;;;9.41;52.93
77889;BME280;67082;41.704;44.768;2024-03-06T02:37:11;95517.56;;;9.55;53.15
77889;BME280;67082;41.704;44.768;2024-03-06T02:39:38;95518.03;;;9.53;52.47
77889;BME280;67082;41.704;44.768;2024-03-06T02:42:07;95523.75;;;9.59;52.64
77889;BME280;67082;41.704;44.768;2024-03-06T02:44:35;95529.78;;;9.66;52.38
77889;BME280;67082;41.704;44.768;2024-03-06T02:47:04;95527.19;;;9.50;52.43
77889;BME280;67082;41.704;44.768;2024-03-06T02:49:32;95530.38;;;9.61;52.36
77889;BME280;67082;41.704;44.768;2024-03-06T02:52:03;95526.31;;;9.53;52.63
77889;BME280;67082;41.704;44.768;2024-03-06T02:54:31;95528.47;;;9.37;52.72
77889;BME280;67082;41.704;44.768;2024-03-06T02:57:00;95532.72;;;9.50;52.29
77889;BME280;67082;41.704;44.768;2024-03-06T02:59:28;95532.84;;;9.47;52.42
77889;BME280;67082;41.704;44.768;2024-03-06T03:01:56;95537.03;;;9.51;52.13
77889;BME280;67082;41.704;44.768;2024-03-06T03:04:24;95534.19;;;9.55;52.94
77889;BME280;67082;41.704;44.768;2024-03-06T03:06:54;95533.16;;;9.49;52.74
77889;BME280;67082;41.704;44.768;2024-03-06T03:09:22;95535.94;;;9.49;53.16
77889;BME280;67082;41.704;44.768;2024-03-06T03:11:51;95525.53;;;9.53;52.75
77889;BME280;67082;41.704;44.768;2024-03-06T03:14:19;95536.06;;;9.45;52.65
77889;BME280;67082;41.704;44.768;2024-03-06T03:16:47;95540.13;;;9.32;52.94
77889;BME280;67082;41.704;44.768;2024-03-06T03:19:16;95536.31;;;9.38;52.64
77889;BME280;67082;41.704;44.768;2024-03-06T03:21:44;95535.22;;;9.36;53.36
77889;BME280;67082;41.704;44.768;2024-03-06T03:24:12;95537.09;;;9.39;52.72
77889;BME280;67082;41.704;44.768;2024-03-06T03:26:41;95534.00;;;9.37;52.99
77889;BME280;67082;41.704;44.768;2024-03-06T03:29:10;95535.44;;;9.41;52.45
77889;BME280;67082;41.704;44.768;2024-03-06T03:31:38;95534.41;;;9.48;52.80
77889;BME280;67082;41.704;44.768;2024-03-06T03:34:06;95534.75;;;9.50;52.65
77889;BME280;67082;41.704;44.768;2024-03-06T03:36:40;95543.91;;;9.47;52.68
77889;BME280;67082;41.704;44.768;2024-03-06T03:39:13;95535.88;;;9.40;52.99
77889;BME280;67082;41.704;44.768;2024-03-06T03:41:45;95543.50;;;9.36;52.51
77889;BME280;67082;41.704;44.768;2024-03-06T03:44:15;95537.44;;;9.28;52.91
77889;BME280;67082;41.704;44.768;2024-03-06T03:46:45;95539.78;;;9.30;52.98
77889;BME280;67082;41.704;44.768;2024-03-06T03:49:13;95544.56;;;9.17;53.48
77889;BME280;67082;41.704;44.768;2024-03-06T03:51:41;95537.63;;;9.12;52.98
77889;BME280;67082;41.704;44.768;2024-03-06T03:54:09;95540.50;;;9.09;53.29
77889;BME280;67082;41.704;44.768;2024-03-06T03:56:37;95539.72;;;9.08;52.97
77889;BME280;67082;41.704;44.768;2024-03-06T03:59:05;95531.84;;;9.19;53.48
77889;BME280;67082;41.704;44.768;2024-03-06T04:01:34;95539.28;;;9.10;53.61
77889;BME280;67082;41.704;44.768;2024-03-06T04:04:02;95532.94;;;9.22;53.00
77889;BME280;67082;41.704;44.768;2024-03-06T04:06:30;95531.16;;;9.28;52.86
77889;BME280;67082;41.704;44.768;2024-03-06T04:08:58;95533.84;;;9.19;53.07
77889;BME280;67082;41.704;44.768;2024-03-06T04:11:27;95540.38;;;9.12;53.96
77889;BME280;67082;41.704;44.768;2024-03-06T04:13:55;95522.59;;;9.01;53.42
77889;BME280;67082;41.704;44.768;2024-03-06T04:16:23;95525.84;;;8.87;54.12
77889;BME280;67082;41.704;44.768;2024-03-06T04:18:51;95525.97;;;8.58;54.79
77889;BME280;67082;41.704;44.768;2024-03-06T04:21:20;95526.94;;;8.89;54.54
77889;BME280;67082;41.704;44.768;2024-03-06T04:23:47;95525.47;;;9.10;53.20
77889;BME280;67082;41.704;44.768;2024-03-06T04:26:16;95530.34;;;9.06;53.49
77889;BME280;67082;41.704;44.768;2024-03-06T04:28:45;95531.00;;;9.10;53.54
77889;BME280;67082;41.704;44.768;2024-03-06T04:31:14;95535.44;;;8.95;53.74
77889;BME280;67082;41.704;44.768;2024-03-06T04:33:42;95529.03;;;8.98;53.51
77889;BME280;67082;41.704;44.768;2024-03-06T04:36:11;95529.34;;;9.12;53.40
77889;BME280;67082;41.704;44.768;2024-03-06T04:38:39;95527.19;;;9.29;53.38
77889;BME280;67082;41.704;44.768;2024-03-06T04:41:08;95522.72;;;9.44;52.65
77889;BME280;67082;41.704;44.768;2024-03-06T04:43:36;95523.09;;;9.55;51.92
77889;BME280;67082;41.704;44.768;2024-03-06T04:46:04;95519.63;;;9.63;52.29
77889;BME280;67082;41.704;44.768;2024-03-06T04:48:32;95514.28;;;9.69;52.34
77889;BME280;67082;41.704;44.768;2024-03-06T04:51:00;95514.59;;;9.71;51.76
77889;BME280;67082;41.704;44.768;2024-03-06T04:53:29;95508.84;;;9.78;51.75
77889;BME280;67082;41.704;44.768;2024-03-06T04:55:57;95510.47;;;9.54;52.17
77889;BME280;67082;41.704;44.768;2024-03-06T04:58:25;95510.75;;;9.68;52.13
77889;BME280;67082;41.704;44.768;2024-03-06T05:00:53;95508.69;;;9.60;51.55
77889;BME280;67082;41.704;44.768;2024-03-06T05:06:30;95504.47;;;9.68;52.56
77889;BME280;67082;41.704;44.768;2024-03-06T05:09:16;95506.13;;;9.87;52.29
77889;BME280;67082;41.704;44.768;2024-03-06T05:12:02;95505.84;;;9.94;51.27
77889;BME280;67082;41.704;44.768;2024-03-06T05:14:47;95501.13;;;10.03;51.41
77889;BME280;67082;41.704;44.768;2024-03-06T05:17:33;95502.59;;;10.08;51.09
77889;BME280;67082;41.704;44.768;2024-03-06T05:20:18;95494.59;;;10.10;51.34
77889;BME280;67082;41.704;44.768;2024-03-06T05:23:03;95493.16;;;10.27;50.67
77889;BME280;67082;41.704;44.768;2024-03-06T05:25:49;95483.94;;;10.30;50.68
77889;BME280;67082;41.704;44.768;2024-03-06T05:28:34;95487.25;;;9.94;51.02
77889;BME280;67082;41.704;44.768;2024-03-06T05:31:20;95483.72;;;10.15;50.97
77889;BME280;67082;41.704;44.768;2024-03-06T05:34:08;95486.44;;;10.37;50.73
77889;BME280;67082;41.704;44.768;2024-03-06T05:36:54;95476.91;;;10.47;50.27
77889;BME280;67082;41.704;44.768;2024-03-06T05:39:39;95472.66;;;10.63;49.99
77889;BME280;67082;41.704;44.768;2024-03-06T05:42:25;95475.97;;;10.41;50.20
77889;BME280;67082;41.704;44.768;2024-03-06T05:45:09;95470.34;;;10.23;50.57
77889;BME280;67082;41.704;44.768;2024-03-06T05:47:58;95466.63;;;10.47;50.26
77889;BME280;67082;41.704;44.768;2024-03-06T05:50:43;95460.91;;;10.42;50.45
77889;BME280;67082;41.704;44.768;2024-03-06T05:53:29;95466.97;;;10.19;50.50
77889;BME280;67082;41.704;44.768;2024-03-06T05:56:15;95461.31;;;10.22;50.45
77889;BME280;67082;41.704;44.768;2024-03-06T05:59:02;95460.09;;;10.32;50.57
77889;BME280;67082;41.704;44.768;2024-03-06T06:01:35;95452.06;;;10.65;49.65
77889;BME280;67082;41.704;44.768;2024-03-06T06:04:04;95451.81;;;10.89;49.15
77889;BME280;67082;41.704;44.768;2024-03-06T06:06:36;95450.75;;;11.05;48.71
77889;BME280;67082;41.704;44.768;2024-03-06T06:09:04;95444.75;;;11.15;48.61
77889;BME280;67082;41.704;44.768;2024-03-06T06:11:40;95443.38;;;11.29;48.11
77889;BME280;67082;41.704;44.768;2024-03-06T06:14:08;95444.44;;;11.13;48.13
77889;BME280;67082;41.704;44.768;2024-03-06T06:16:37;95440.75;;;11.16;48.29
77889;BME280;67082;41.704;44.768;2024-03-06T06:19:06;95437.00;;;10.92;48.66
77889;BME280;67082;41.704;44.768;2024-03-06T06:21:34;95435.47;;;10.91;48.47
77889;BME280;67082;41.704;44.768;2024-03-06T06:24:04;95440.44;;;11.05;48.12
77889;BME280;67082;41.704;44.768;2024-03-06T06:26:32;95438.97;;;10.65;49.60
77889;BME280;67082;41.704;44.768;2024-03-06T06:29:01;95435.13;;;10.63;49.47
77889;BME280;67082;41.704;44.768;2024-03-06T06:31:29;95433.66;;;11.06;48.51
77889;BME280;67082;41.704;44.768;2024-03-06T06:33:57;95431.53;;;11.28;48.00
77889;BME280;67082;41.704;44.768;2024-03-06T06:36:26;95417.47;;;11.41;48.07
77889;BME280;67082;41.704;44.768;2024-03-06T06:38:55;95420.72;;;10.94;49.04
77889;BME280;67082;41.704;44.768;2024-03-06T06:41:24;95418.09;;;11.27;48.32
77889;BME280;67082;41.704;44.768;2024-03-06T06:43:52;95412.41;;;11.30;48.33
77889;BME280;67082;41.704;44.768;2024-03-06T06:46:21;95400.69;;;11.44;48.08
77889;BME280;67082;41.704;44.768;2024-03-06T06:48:50;95394.81;;;11.51;47.21
77889;BME280;67082;41.704;44.768;2024-03-06T06:51:19;95396.06;;;11.59;47.03
77889;BME280;67082;41.704;44.768;2024-03-06T06:53:49;95395.00;;;11.48;47.56
77889;BME280;67082;41.704;44.768;2024-03-06T06:56:23;95387.28;;;11.61;47.14
77889;BME280;67082;41.704;44.768;2024-03-06T06:58:51;95389.88;;;11.55;47.58
77889;BME280;67082;41.704;44.768;2024-03-06T07:01:20;95388.19;;;11.76;46.80
77889;BME280;67082;41.704;44.768;2024-03-06T07:03:48;95378.13;;;11.87;46.62
77889;BME280;67082;41.704;44.768;2024-03-06T07:06:16;95381.81;;;11.84;46.47
77889;BME280;67082;41.704;44.768;2024-03-06T07:08:45;95381.78;;;12.02;46.59
77889;BME280;67082;41.704;44.768;2024-03-06T07:11:12;95377.22;;;12.23;45.99
77889;BME280;67082;41.704;44.768;2024-03-06T07:13:41;95375.91;;;12.00;46.47
77889;BME280;67082;41.704;44.768;2024-03-06T07:16:10;95379.00;;;11.93;46.70
77889;BME280;67082;41.704;44.768;2024-03-06T07:18:39;95373.63;;;11.90;46.69
77889;BME280;67082;41.704;44.768;2024-03-06T07:21:07;95369.97;;;11.75;47.12
77889;BME280;67082;41.704;44.768;2024-03-06T07:23:35;95362.06;;;11.91;47.22
77889;BME280;67082;41.704;44.768;2024-03-06T07:26:04;95361.75;;;11.89;47.41
77889;BME280;67082;41.704;44.768;2024-03-06T07:28:32;95357.03;;;11.63;47.79
77889;BME280;67082;41.704;44.768;2024-03-06T07:31:01;95351.63;;;12.10;47.00
77889;BME280;67082;41.704;44.768;2024-03-06T07:33:31;95344.81;;;12.20;47.28
77889;BME280;67082;41.704;44.768;2024-03-06T07:36:01;95343.47;;;12.39;46.97
77889;BME280;67082;41.704;44.768;2024-03-06T07:38:29;95333.25;;;12.21;46.96
77889;BME280;67082;41.704;44.768;2024-03-06T07:40:57;95325.25;;;12.14;47.63
77889;BME280;67082;41.704;44.768;2024-03-06T07:43:26;95321.72;;;12.37;47.28
77889;BME280;67082;41.704;44.768;2024-03-06T07:45:54;95320.34;;;12.33;47.32
77889;BME280;67082;41.704;44.768;2024-03-06T07:48:23;95316.41;;;12.25;47.47
77889;BME280;67082;41.704;44.768;2024-03-06T07:50:51;95309.59;;;12.26;47.74
77889;BME280;67082;41.704;44.768;2024-03-06T07:53:19;95314.41;;;12.25;47.66
77889;BME280;67082;41.704;44.768;2024-03-06T07:55:48;95308.38;;;12.50;47.16
77889;BME280;67082;41.704;44.768;2024-03-06T07:58:16;95317.22;;;12.63;46.73
77889;BME280;67082;41.704;44.768;2024-03-06T08:00:44;95307.34;;;12.62;46.48
77889;BME280;67082;41.704;44.768;2024-03-06T08:03:12;95304.56;;;12.86;46.80
77889;BME280;67082;41.704;44.768;2024-03-06T08:05:41;95312.31;;;12.82;46.18
77889;BME280;67082;41.704;44.768;2024-03-06T08:08:09;95304.81;;;12.73;46.66
77889;BME280;67082;41.704;44.768;2024-03-06T08:10:38;95303.69;;;12.80;46.68
77889;BME280;67082;41.704;44.768;2024-03-06T08:13:06;95305.41;;;12.77;46.33
77889;BME280;67082;41.704;44.768;2024-03-06T08:15:33;95304.06;;;12.87;46.34
77889;BME280;67082;41.704;44.768;2024-03-06T08:18:02;95295.16;;;12.83;46.52
77889;BME280;67082;41.704;44.768;2024-03-06T08:20:31;95300.13;;;12.56;47.17
77889;BME280;67082;41.704;44.768;2024-03-06T08:22:59;95289.81;;;12.56;47.07
77889;BME280;67082;41.704;44.768;2024-03-06T08:25:28;95293.22;;;12.51;47.15
77889;BME280;67082;41.704;44.768;2024-03-06T08:27:56;95284.84;;;12.60;47.11
77889;BME280;67082;41.704;44.768;2024-03-06T08:30:24;95293.03;;;12.55;46.96
77889;BME280;67082;41.704;44.768;2024-03-06T08:32:52;95284.34;;;12.62;46.69
77889;BME280;67082;41.704;44.768;2024-03-06T08:35:21;95279.09;;;12.64;46.46
77889;BME280;67082;41.704;44.768;2024-03-06T08:37:51;95272.59;;;12.81;46.62
77889;BME280;67082;41.704;44.768;2024-03-06T08:40:19;95272.25;;;12.88;46.13
77889;BME280;67082;41.704;44.768;2024-03-06T08:42:48;95266.16;;;12.99;45.92
77889;BME280;67082;41.704;44.768;2024-03-06T08:45:17;95265.03;;;13.05;45.82
77889;BME280;67082;41.704;44.768;2024-03-06T08:47:46;95264.06;;;13.37;45.15
77889;BME280;67082;41.704;44.768;2024-03-06T08:50:16;95263.88;;;13.41;44.64
77889;BME280;67082;41.704;44.768;2024-03-06T08:52:45;95260.53;;;13.51;44.59
77889;BME280;67082;41.704;44.768;2024-03-06T08:55:16;95259.34;;;13.58;44.78
77889;BME280;67082;41.704;44.768;2024-03-06T08:57:44;95255.44;;;13.64;44.55
77889;BME280;67082;41.704;44.768;2024-03-06T09:00:13;95252.69;;;13.84;44.03
77889;BME280;67082;41.704;44.768;2024-03-06T09:02:43;95249.06;;;13.78;43.57
77889;BME280;67082;41.704;44.768;2024-03-06T09:05:11;95248.09;;;13.81;43.71
77889;BME280;67082;41.704;44.768;2024-03-06T09:07:41;95244.16;;;13.73;43.76
77889;BME280;67082;41.704;44.768;2024-03-06T09:10:10;95231.56;;;13.92;43.30
77889;BME280;67082;41.704;44.768;2024-03-06T09:12:39;95239.63;;;13.90;42.92
77889;BME280;67082;41.704;44.768;2024-03-06T09:15:07;95231.84;;;14.14;42.10
77889;BME280;67082;41.704;44.768;2024-03-06T09:17:38;95223.00;;;14.16;42.38
77889;BME280;67082;41.704;44.768;2024-03-06T09:20:06;95227.09;;;14.00;42.09
77889;BME280;67082;41.704;44.768;2024-03-06T09:22:40;95223.00;;;14.16;41.56
77889;BME280;67082;41.704;44.768;2024-03-06T09:25:12;95216.66;;;14.30;41.11
77889;BME280;67082;41.704;44.768;2024-03-06T09:27:43;95214.56;;;14.25;40.23
77889;BME280;67082;41.704;44.768;2024-03-06T09:30:12;95218.50;;;14.18;40.87
77889;BME280;67082;41.704;44.768;2024-03-06T09:32:41;95216.78;;;14.21;40.42
77889;BME280;67082;41.704;44.768;2024-03-06T09:35:11;95212.91;;;14.18;40.21
77889;BME280;67082;41.704;44.768;2024-03-06T09:37:42;95204.28;;;14.16;40.93
77889;BME280;67082;41.704;44.768;2024-03-06T09:40:11;95206.41;;;14.21;40.73
77889;BME280;67082;41.704;44.768;2024-03-06T09:42:48;95201.09;;;14.23;41.07
77889;BME280;67082;41.704;44.768;2024-03-06T09:45:17;95198.53;;;14.20;41.25
77889;BME280;67082;41.704;44.768;2024-03-06T09:47:49;95188.53;;;14.13;41.55
77889;BME280;67082;41.704;44.768;2024-03-06T09:50:22;95177.69;;;14.15;41.44
77889;BME280;67082;41.704;44.768;2024-03-06T09:52:55;95173.47;;;14.20;40.45
77889;BME280;67082;41.704;44.768;2024-03-06T09:55:24;95182.78;;;14.37;40.44
77889;BME280;67082;41.704;44.768;2024-03-06T09:57:54;95172.13;;;14.35;40.23
77889;BME280;67082;41.704;44.768;2024-03-06T10:00:22;95165.16;;;14.25;39.73
77889;BME280;67082;41.704;44.768;2024-03-06T10:02:57;95163.84;;;14.21;39.70
77889;BME280;67082;41.704;44.768;2024-03-06T10:05:29;95161.97;;;14.32;40.02
77889;BME280;67082;41.704;44.768;2024-03-06T10:07:59;95169.28;;;14.30;40.06
77889;BME280;67082;41.704;44.768;2024-03-06T10:10:28;95159.72;;;14.36;39.66
77889;BME280;67082;41.704;44.768;2024-03-06T10:12:56;95154.56;;;14.29;40.23
77889;BME280;67082;41.704;44.768;2024-03-06T10:15:28;95150.66;;;14.41;39.49
77889;BME280;67082;41.704;44.768;2024-03-06T10:18:13;95153.34;;;14.56;39.56
77889;BME280;67082;41.704;44.768;2024-03-06T10:20:43;95151.97;;;14.46;39.73
77889;BME280;67082;41.704;44.768;2024-03-06T10:23:12;95141.50;;;14.61;40.74
77889;BME280;67082;41.704;44.768;2024-03-06T10:25:43;95141.28;;;14.64;39.99
77889;BME280;67082;41.704;44.768;2024-03-06T10:28:12;95140.03;;;14.65;39.04
77889;BME280;67082;41.704;44.768;2024-03-06T10:30:41;95133.75;;;14.70;39.30
77889;BME280;67082;41.704;44.768;2024-03-06T10:33:14;95126.47;;;14.78;39.27
77889;BME280;67082;41.704;44.768;2024-03-06T10:35:44;95132.91;;;14.64;39.92
77889;BME280;67082;41.704;44.768;2024-03-06T10:38:13;95129.41;;;14.69;39.39
77889;BME280;67082;41.704;44.768;2024-03-06T10:40:43;95129.69;;;14.71;39.87
77889;BME280;67082;41.704;44.768;2024-03-06T10:43:12;95126.97;;;14.77;39.89
77889;BME280;67082;41.704;44.768;2024-03-06T10:45:49;95110.97;;;14.77;39.73
77889;BME280;67082;41.704;44.768;2024-03-06T10:48:18;95115.91;;;14.88;39.53
77889;BME280;67082;41.704;44.768;2024-03-06T10:50:48;95111.88;;;14.63;39.99
77889;BME280;67082;41.704;44.768;2024-03-06T10:53:18;95119.53;;;14.68;40.04
77889;BME280;67082;41.704;44.768;2024-03-06T10:55:51;95119.09;;;14.75;39.75
77889;BME280;67082;41.704;44.768;2024-03-06T10:58:20;95114.22;;;14.70;40.19
77889;BME280;67082;41.704;44.768;2024-03-06T11:00:48;95116.13;;;14.84;39.27
77889;BME280;67082;41.704;44.768;2024-03-06T11:03:17;95113.28;;;14.79;39.40
77889;BME280;67082;41.704;44.768;2024-03-06T11:05:45;95117.78;;;14.71;38.63
77889;BME280;67082;41.704;44.768;2024-03-06T11:08:20;95110.56;;;14.84;38.28
77889;BME280;67082;41.704;44.768;2024-03-06T11:10:52;95113.63;;;14.86;38.28
77889;BME280;67082;41.704;44.768;2024-03-06T11:15:50;95106.78;;;14.87;38.74
77889;BME280;67082;41.704;44.768;2024-03-06T11:23:30;95117.47;;;14.94;38.09
77889;BME280;67082;41.704;44.768;2024-03-06T11:26:02;95113.63;;;14.86;38.05
77889;BME280;67082;41.704;44.768;2024-03-06T11:28:32;95111.91;;;14.94;38.11
77889;BME280;67082;41.704;44.768;2024-03-06T11:33:44;95114.38;;;15.12;37.67
77889;BME280;67082;41.704;44.768;2024-03-06T11:36:18;95110.47;;;15.04;37.92
77889;BME280;67082;41.704;44.768;2024-03-06T11:41:31;95103.06;;;15.27;37.37
77889;BME280;67082;41.704;44.768;2024-03-06T11:44:00;95097.53;;;15.32;36.93
77889;BME280;67082;41.704;44.768;2024-03-06T11:46:44;95106.16;;;15.34;37.18
77889;BME280;67082;41.704;44.768;2024-03-06T11:49:24;95101.69;;;15.42;36.81
77889;BME280;67082;41.704;44.768;2024-03-06T11:51:57;95099.69;;;15.48;36.81
77889;BME280;67082;41.704;44.768;2024-03-06T11:54:26;95095.88;;;15.51;37.05
77889;BME280;67082;41.704;44.768;2024-03-06T11:56:57;95089.25;;;15.43;36.76
77889;BME280;67082;41.704;44.768;2024-03-06T11:59:26;95099.59;;;15.37;37.24
77889;BME280;67082;41.704;44.768;2024-03-06T12:01:56;95097.03;;;15.34;37.58
77889;BME280;67082;41.704;44.768;2024-03-06T12:04:24;95092.75;;;15.38;37.52
77889;BME280;67082;41.704;44.768;2024-03-06T12:06:52;95091.22;;;15.37;37.81
77889;BME280;67082;41.704;44.768;2024-03-06T12:09:24;95083.19;;;15.50;37.75
77889;BME280;67082;41.704;44.768;2024-03-06T12:11:53;95081.84;;;15.40;37.73
77889;BME280;67082;41.704;44.768;2024-03-06T12:14:21;95081.94;;;15.20;37.88
77889;BME280;67082;41.704;44.768;2024-03-06T12:17:00;95074.00;;;15.39;37.64
77889;BME280;67082;41.704;44.768;2024-03-06T12:19:35;95082.50;;;15.24;37.59
77889;BME280;67082;41.704;44.768;2024-03-06T12:22:04;95085.06;;;15.28;37.75
77889;BME280;67082;41.704;44.768;2024-03-06T12:24:32;95077.19;;;15.32;37.73
77889;BME280;67082;41.704;44.768;2024-03-06T12:27:02;95075.91;;;15.27;37.33
77889;BME280;67082;41.704;44.768;2024-03-06T12:29:34;95077.66;;;15.25;37.58
77889;BME280;67082;41.704;44.768;2024-03-06T12:32:03;95073.44;;;15.35;37.59
77889;BME280;67082;41.704;44.768;2024-03-06T12:34:31;95066.25;;;15.28;38.71
77889;BME280;67082;41.704;44.768;2024-03-06T12:37:09;95070.69;;;15.09;39.67
77889;BME280;67082;41.704;44.768;2024-03-06T12:39:39;95066.53;;;14.94;40.22
77889;BME280;67082;41.704;44.768;2024-03-06T12:42:10;95066.19;;;14.86;40.41
77889;BME280;67082;41.704;44.768;2024-03-06T12:44:39;95069.25;;;14.88;40.77
77889;BME280;67082;41.704;44.768;2024-03-06T12:47:09;95061.34;;;14.81;40.69
77889;BME280;67082;41.704;44.768;2024-03-06T12:49:39;95065.84;;;14.73;41.12
77889;BME280;67082;41.704;44.768;2024-03-06T12:52:07;95060.78;;;14.77;41.14
77889;BME280;67082;41.704;44.768;2024-03-06T12:54:36;95052.25;;;14.86;41.03
77889;BME280;67082;41.704;44.768;2024-03-06T12:57:04;95058.19;;;14.68;41.78
77889;BME280;67082;41.704;44.768;2024-03-06T12:59:32;95048.16;;;14.82;41.09
77889;BME280;67082;41.704;44.768;2024-03-06T13:02:00;95051.19;;;14.78;41.58
77889;BME280;67082;41.704;44.768;2024-03-06T13:04:29;95050.44;;;14.52;41.88
77889;BME280;67082;41.704;44.768;2024-03-06T13:06:57;95053.31;;;14.63;42.66
77889;BME280;67082;41.704;44.768;2024-03-06T13:09:25;95054.13;;;14.69;42.16
77889;BME280;67082;41.704;44.768;2024-03-06T13:11:53;95055.41;;;14.68;42.14
77889;BME280;67082;41.704;44.768;2024-03-06T13:14:22;95057.41;;;14.68;42.03
77889;BME280;67082;41.704;44.768;2024-03-06T13:16:51;95058.00;;;14.77;41.69
77889;BME280;67082;41.704;44.768;2024-03-06T13:19:21;95065.25;;;14.64;41.75
77889;BME280;67082;41.704;44.768;2024-03-06T13:21:50;95060.38;;;14.59;41.62
77889;BME280;67082;41.704;44.768;2024-03-06T13:24:19;95056.09;;;14.63;41.15